createdAt,value
2023-03-27T00:01:44.369Z,10.10
2023-03-27T00:04:11.702Z,9.93
2023-03-27T00:06:45.690Z,9.97
2023-03-27T00:09:13.112Z,10.04
2023-03-27T00:11:40.597Z,9.79
2023-03-27T00:14:07.891Z,9.66
2023-03-27T00:16:35.218Z,9.72
2023-03-27T00:19:02.499Z,9.63
2023-03-27T00:21:29.839Z,9.65
2023-03-27T00:23:57.180Z,9.75
2023-03-27T00:26:24.503Z,9.76
2023-03-27T00:28:52.873Z,9.73
2023-03-27T00:31:20.272Z,9.66
2023-03-27T00:33:47.591Z,9.66
2023-03-27T00:36:15.440Z,9.66
2023-03-27T00:38:43.898Z,9.73
2023-03-27T00:41:11.479Z,9.86
2023-03-27T00:43:45.425Z,9.87
2023-03-27T00:46:16.051Z,9.75
2023-03-27T00:48:44.075Z,9.61
2023-03-27T00:51:11.544Z,9.56
2023-03-27T00:53:38.923Z,9.62
2023-03-27T00:56:07.794Z,9.65
2023-03-27T00:58:49.019Z,9.73
2023-03-27T01:01:16.763Z,9.76
2023-03-27T01:03:45.595Z,9.63
2023-03-27T01:06:14.148Z,9.62
2023-03-27T01:08:41.880Z,9.55
2023-03-27T01:11:15.470Z,9.48
2023-03-27T01:14:05.634Z,9.63
2023-03-27T01:16:56.219Z,9.51
2023-03-27T01:19:52.038Z,9.55
2023-03-27T01:22:31.727Z,9.55
2023-03-27T01:25:08.458Z,9.39
2023-03-27T01:27:54.853Z,9.51
2023-03-27T01:30:31.663Z,9.45
2023-03-27T01:33:21.601Z,9.53
2023-03-27T01:36:08.433Z,9.59
2023-03-27T01:39:01.105Z,9.68
2023-03-27T01:42:10.845Z,9.46
2023-03-27T01:45:07.004Z,9.56
2023-03-27T01:47:40.548Z,9.39
2023-03-27T01:50:13.152Z,9.18
2023-03-27T01:52:42.171Z,9.17
2023-03-27T01:55:12.493Z,9.03
2023-03-27T01:57:48.766Z,9.05
2023-03-27T02:00:21.907Z,9.01
2023-03-27T02:03:16.777Z,8.94
2023-03-27T02:06:21.642Z,8.99
2023-03-27T02:08:54.664Z,8.97
2023-03-27T02:11:23.382Z,9.03
2023-03-27T02:13:53.404Z,8.97
2023-03-27T02:16:26.764Z,8.91
2023-03-27T02:18:59.930Z,9.01
2023-03-27T02:21:27.979Z,8.99
2023-03-27T02:24:02.050Z,9.01
2023-03-27T02:26:29.888Z,9.18
2023-03-27T02:29:18.746Z,9.10
2023-03-27T02:31:52.371Z,9.12
2023-03-27T02:34:50.473Z,9.20
2023-03-27T02:37:39.656Z,9.35
2023-03-27T02:40:22.866Z,9.39
2023-03-27T02:43:27.090Z,9.48
2023-03-27T02:46:04.605Z,9.46
2023-03-27T02:48:45.723Z,9.55
2023-03-27T02:51:15.498Z,9.51
2023-03-27T02:53:52.675Z,9.59
2023-03-27T02:56:20.286Z,9.62
2023-03-27T02:58:57.349Z,9.56
2023-03-27T03:01:50.778Z,9.49
2023-03-27T03:04:28.520Z,9.43
2023-03-27T03:07:06.583Z,9.30
2023-03-27T03:09:34.712Z,9.43
2023-03-27T03:12:08.633Z,9.34
2023-03-27T03:14:41.101Z,9.28
2023-03-27T03:17:09.092Z,9.12
2023-03-27T03:19:37.318Z,8.99
2023-03-27T03:22:06.035Z,9.12
2023-03-27T03:24:37.630Z,9.11
2023-03-27T03:27:05.910Z,9.15
2023-03-27T03:29:44.344Z,9.17
2023-03-27T03:32:23.409Z,9.12
2023-03-27T03:34:52.645Z,9.24
2023-03-27T03:37:20.640Z,9.05
2023-03-27T03:39:47.952Z,9.11
2023-03-27T03:42:22.848Z,9.05
2023-03-27T03:44:53.043Z,9.00
2023-03-27T03:47:22.371Z,9.10
2023-03-27T03:49:50.541Z,9.01
2023-03-27T03:52:18.527Z,8.93
2023-03-27T03:54:46.843Z,8.93
2023-03-27T03:57:14.595Z,8.94
2023-03-27T03:59:43.499Z,9.08
2023-03-27T04:02:30.442Z,9.10
2023-03-27T04:05:08.452Z,9.10
2023-03-27T04:07:37.253Z,9.10
2023-03-27T04:10:42.791Z,9.22
2023-03-27T04:13:20.074Z,9.34
2023-03-27T04:15:57.185Z,9.34
2023-03-27T04:18:33.024Z,9.41
2023-03-27T04:21:03.892Z,9.49
2023-03-27T04:23:31.340Z,9.49
2023-03-27T04:26:00.502Z,9.43
2023-03-27T04:28:37.332Z,9.45
2023-03-27T04:31:24.539Z,9.49
2023-03-27T04:34:22.316Z,9.48
2023-03-27T04:37:05.140Z,9.51
2023-03-27T04:39:37.233Z,9.48
2023-03-27T04:42:04.569Z,9.48
2023-03-27T04:44:32.272Z,9.35
2023-03-27T04:47:02.349Z,9.43
2023-03-27T04:49:30.079Z,9.31
2023-03-27T04:52:06.826Z,9.31
2023-03-27T04:54:34.625Z,9.42
2023-03-27T04:57:03.788Z,9.38
2023-03-27T04:59:32.174Z,9.41
2023-03-27T05:02:33.815Z,9.52
2023-03-27T05:05:14.591Z,9.53
2023-03-27T05:07:45.253Z,9.43
2023-03-27T05:10:21.833Z,9.36
2023-03-27T05:12:51.910Z,9.46
2023-03-27T05:15:19.415Z,9.53
2023-03-27T05:17:53.385Z,9.61
2023-03-27T05:20:24.085Z,9.46
2023-03-27T05:22:55.542Z,9.51
2023-03-27T05:25:26.112Z,9.49
2023-03-27T05:27:54.742Z,9.45
2023-03-27T05:30:27.048Z,9.43
2023-03-27T05:33:09.415Z,9.38
2023-03-27T05:35:38.146Z,9.42
2023-03-27T05:38:06.681Z,9.38
2023-03-27T05:40:40.138Z,9.35
2023-03-27T05:43:08.492Z,9.34
2023-03-27T05:45:37.538Z,9.45
2023-03-27T05:48:07.500Z,9.41
2023-03-27T05:50:41.870Z,9.28
2023-03-27T05:53:18.849Z,9.35
2023-03-27T05:56:09.746Z,9.38
2023-03-27T05:58:49.447Z,9.42
2023-03-27T06:01:16.885Z,9.39
2023-03-27T06:03:45.786Z,9.28
2023-03-27T06:06:28.995Z,9.35
2023-03-27T06:09:20.451Z,9.39
2023-03-27T06:12:23.326Z,9.38
2023-03-27T06:18:18.196Z,9.48
2023-03-27T06:21:01.065Z,9.45
2023-03-27T06:23:50.632Z,9.56
2023-03-27T06:26:26.564Z,9.46
2023-03-27T06:29:01.192Z,9.42
2023-03-27T06:31:48.337Z,9.48
2023-03-27T06:34:27.803Z,9.46
2023-03-27T06:37:09.073Z,9.48
2023-03-27T06:39:41.430Z,9.46
2023-03-27T06:42:09.153Z,9.59
2023-03-27T06:44:52.006Z,9.53
2023-03-27T06:47:54.686Z,9.51
2023-03-27T06:50:33.172Z,9.58
2023-03-27T06:53:15.918Z,9.49
2023-03-27T06:55:51.490Z,9.51
2023-03-27T06:58:20.928Z,9.51
2023-03-27T07:00:50.760Z,9.39
2023-03-27T07:03:20.812Z,9.48
2023-03-27T07:06:25.336Z,9.45
2023-03-27T07:08:58.172Z,9.48
2023-03-27T07:11:26.346Z,9.49
2023-03-27T07:13:56.676Z,9.51
2023-03-27T07:16:28.536Z,9.59
2023-03-27T07:18:59.426Z,9.59
2023-03-27T07:21:29.443Z,9.53
2023-03-27T07:23:59.830Z,9.58
2023-03-27T07:26:36.671Z,9.58
2023-03-27T07:29:19.300Z,9.49
2023-03-27T07:34:29.856Z,9.48
2023-03-27T07:37:23.183Z,9.58
2023-03-27T07:40:14.925Z,9.52
2023-03-27T07:42:54.929Z,9.49
2023-03-27T07:45:22.875Z,9.59
2023-03-27T07:47:52.670Z,9.62
2023-03-27T07:50:21.954Z,9.63
2023-03-27T07:52:51.534Z,9.70
2023-03-27T07:55:20.066Z,9.78
2023-03-27T07:58:02.302Z,9.63
2023-03-27T08:00:34.181Z,9.75
2023-03-27T08:03:10.752Z,9.86
2023-03-27T08:05:43.493Z,9.89
2023-03-27T08:08:13.894Z,9.83
2023-03-27T08:10:57.206Z,9.90
2023-03-27T08:13:26.759Z,9.79
2023-03-27T08:16:07.120Z,9.76
2023-03-27T08:18:40.149Z,9.89
2023-03-27T08:21:09.284Z,9.97
2023-03-27T08:23:43.016Z,10.01
2023-03-27T08:26:23.754Z,10.13
2023-03-27T08:28:58.740Z,10.24
2023-03-27T08:31:32.360Z,10.22
2023-03-27T08:34:03.477Z,10.24
2023-03-27T08:36:46.746Z,10.37
2023-03-27T08:39:19.526Z,10.54
2023-03-27T08:42:00.334Z,10.49
2023-03-27T08:44:32.674Z,10.51
2023-03-27T08:47:10.016Z,10.52
2023-03-27T08:49:57.479Z,10.51
2023-03-27T08:52:47.230Z,10.61
2023-03-27T08:55:42.882Z,10.79
2023-03-27T08:58:42.572Z,10.80
2023-03-27T09:01:38.533Z,10.95
2023-03-27T09:04:37.658Z,10.91
2023-03-27T09:07:29.772Z,10.93
2023-03-27T09:10:43.428Z,11.00
2023-03-27T09:13:36.776Z,11.33
2023-03-27T09:16:23.326Z,11.16
2023-03-27T09:19:16.118Z,11.27
2023-03-27T09:22:01.311Z,11.20
2023-03-27T09:24:59.819Z,11.36
2023-03-27T09:28:15.575Z,11.30
2023-03-27T09:30:49.225Z,11.34
2023-03-27T09:33:31.383Z,11.54
2023-03-27T09:35:59.655Z,11.58
2023-03-27T09:38:34.264Z,11.60
2023-03-27T09:41:08.388Z,11.67
2023-03-27T09:44:00.081Z,11.53
2023-03-27T09:46:27.929Z,11.37
2023-03-27T09:49:18.568Z,11.38
2023-03-27T09:51:56.935Z,11.64
2023-03-27T09:54:53.182Z,11.64
2023-03-27T09:57:29.480Z,11.67
2023-03-27T10:00:23.743Z,11.60
2023-03-27T10:03:04.860Z,11.63
2023-03-27T10:05:35.550Z,11.75
2023-03-27T10:08:04.125Z,11.74
2023-03-27T10:10:46.495Z,11.77
2023-03-27T10:13:29.658Z,11.71
2023-03-27T10:16:02.462Z,11.77
2023-03-27T10:18:44.995Z,11.91
2023-03-27T10:21:27.016Z,11.82
2023-03-27T10:24:06.500Z,11.71
2023-03-27T10:26:54.855Z,11.64
2023-03-27T10:29:28.358Z,11.61
2023-03-27T10:32:00.363Z,11.48
2023-03-27T10:34:58.290Z,11.37
2023-03-27T10:37:31.469Z,11.22
2023-03-27T10:40:25.792Z,11.03
2023-03-27T10:42:58.044Z,10.88
2023-03-27T10:45:25.745Z,10.79
2023-03-27T10:47:59.867Z,10.59
2023-03-27T10:50:45.748Z,10.18
2023-03-27T10:53:25.390Z,10.18
2023-03-27T10:56:10.224Z,10.11
2023-03-27T10:58:49.386Z,10.07
2023-03-27T11:01:28.486Z,10.14
2023-03-27T11:04:09.400Z,9.97
2023-03-27T11:06:46.629Z,9.66
2023-03-27T11:09:24.575Z,9.63
2023-03-27T11:12:11.729Z,9.61
2023-03-27T11:15:11.797Z,9.59
2023-03-27T11:17:43.014Z,9.65
2023-03-27T11:20:33.155Z,9.59
2023-03-27T11:23:58.990Z,9.32
2023-03-27T11:26:46.078Z,9.32
2023-03-27T11:29:21.386Z,9.35
2023-03-27T11:31:53.110Z,9.59
2023-03-27T11:34:57.931Z,9.90
2023-03-27T11:38:02.099Z,9.78
2023-03-27T11:40:45.988Z,9.65
2023-03-27T11:43:14.706Z,9.49
2023-03-27T11:45:58.313Z,9.34
2023-03-27T11:49:03.061Z,9.51
2023-03-27T11:51:48.799Z,9.46
2023-03-27T11:54:19.538Z,9.56
2023-03-27T11:56:55.821Z,9.04
2023-03-27T11:59:54.351Z,9.21
2023-03-27T12:02:29.201Z,9.31
2023-03-27T12:05:21.844Z,9.58
2023-03-27T12:08:31.895Z,9.80
2023-03-27T12:11:00.784Z,9.56
2023-03-27T12:13:47.834Z,9.28
2023-03-27T12:16:52.249Z,9.28
2023-03-27T12:19:47.471Z,9.12
2023-03-27T12:22:30.444Z,8.88
2023-03-27T12:25:23.963Z,8.90
2023-03-27T12:28:22.687Z,8.87
2023-03-27T12:31:47.976Z,9.30
2023-03-27T12:34:41.806Z,9.63
2023-03-27T12:37:11.104Z,9.62
2023-03-27T12:39:48.419Z,9.53
2023-03-27T12:42:48.767Z,9.48
2023-03-27T12:45:19.723Z,9.31
2023-03-27T12:48:20.406Z,9.30
2023-03-27T12:50:52.794Z,9.59
2023-03-27T12:53:48.538Z,9.39
2023-03-27T12:56:19.618Z,9.10
2023-03-27T12:58:51.917Z,9.34
2023-03-27T13:01:52.328Z,9.22
2023-03-27T13:05:08.632Z,9.12
2023-03-27T13:07:53.426Z,8.99
2023-03-27T13:11:09.866Z,9.20
2023-03-27T13:14:16.408Z,9.52
2023-03-27T13:17:21.176Z,9.41
2023-03-27T13:19:58.314Z,9.20
2023-03-27T13:23:01.212Z,9.35
2023-03-27T13:26:04.197Z,9.31
2023-03-27T13:28:38.449Z,9.03
2023-03-27T13:31:47.307Z,8.59
2023-03-27T13:34:26.912Z,8.77
2023-03-27T13:37:09.484Z,8.91
2023-03-27T13:40:10.361Z,9.04
2023-03-27T13:42:42.330Z,8.74
2023-03-27T13:45:32.161Z,8.85
2023-03-27T13:48:44.009Z,8.84
2023-03-27T13:51:33.007Z,9.20
2023-03-27T13:54:26.314Z,9.18
2023-03-27T13:57:09.539Z,9.45
2023-03-27T14:00:19.254Z,9.51
2023-03-27T14:02:58.995Z,9.36
2023-03-27T14:05:57.080Z,8.94
2023-03-27T14:08:38.773Z,8.88
2023-03-27T14:11:37.336Z,8.85
2023-03-27T14:14:19.805Z,9.00
2023-03-27T14:16:56.530Z,8.88
2023-03-27T14:19:32.911Z,8.90
2023-03-27T14:22:03.664Z,9.14
2023-03-27T14:24:44.495Z,9.42
2023-03-27T14:27:28.455Z,9.51
2023-03-27T14:30:09.036Z,9.25
2023-03-27T14:32:40.148Z,9.05
2023-03-27T14:35:29.739Z,8.85
2023-03-27T14:38:07.869Z,8.57
2023-03-27T14:40:47.688Z,8.14
2023-03-27T14:43:19.565Z,8.24
2023-03-27T14:45:52.681Z,8.08
2023-03-27T14:48:26.300Z,8.22
2023-03-27T14:50:55.559Z,8.25
2023-03-27T14:53:26.553Z,8.25
2023-03-27T14:56:11.759Z,8.11
2023-03-27T14:59:02.527Z,8.09
2023-03-27T15:01:42.944Z,8.21
2023-03-27T15:04:12.161Z,8.14
2023-03-27T15:06:41.877Z,8.11
2023-03-27T15:09:19.654Z,8.24
2023-03-27T15:12:05.783Z,8.35
2023-03-27T15:14:33.800Z,8.54
2023-03-27T15:17:08.850Z,8.46
2023-03-27T15:19:45.818Z,8.43
2023-03-27T15:22:35.485Z,8.50
2023-03-27T15:25:05.474Z,8.26
2023-03-27T15:27:38.351Z,8.06
2023-03-27T15:30:37.895Z,8.05
2023-03-27T15:33:06.003Z,7.90
2023-03-27T15:35:45.245Z,7.88
2023-03-27T15:38:14.253Z,8.02
2023-03-27T15:40:44.313Z,7.97
2023-03-27T15:43:14.647Z,7.98
2023-03-27T15:45:57.335Z,7.99
2023-03-27T15:48:40.428Z,7.78
2023-03-27T15:51:18.723Z,7.59
2023-03-27T15:53:59.147Z,7.60
2023-03-27T15:56:43.002Z,7.52
2023-03-27T15:59:14.221Z,7.43
2023-03-27T16:01:55.371Z,7.46
2023-03-27T16:04:27.994Z,7.37
2023-03-27T16:07:06.191Z,7.46
2023-03-27T16:09:40.091Z,7.46
2023-03-27T16:12:10.188Z,7.33
2023-03-27T16:14:40.887Z,7.22
2023-03-27T16:17:25.223Z,7.18
2023-03-27T16:20:07.442Z,7.13
2023-03-27T16:22:37.144Z,7.09
2023-03-27T16:25:08.877Z,7.06
2023-03-27T16:27:49.907Z,7.02
2023-03-27T16:30:32.459Z,7.16
2023-03-27T16:33:00.341Z,7.09
2023-03-27T16:35:28.611Z,6.99
2023-03-27T16:37:56.623Z,6.94
2023-03-27T16:40:24.530Z,6.96
2023-03-27T16:42:51.840Z,6.95
2023-03-27T16:45:19.258Z,6.92
2023-03-27T16:47:50.866Z,6.98
2023-03-27T16:50:22.041Z,6.94
2023-03-27T16:52:49.404Z,6.95
2023-03-27T16:55:17.455Z,6.85
2023-03-27T16:57:46.363Z,6.77
2023-03-27T17:00:15.190Z,6.64
2023-03-27T17:02:44.598Z,6.63
2023-03-27T17:05:12.149Z,6.61
2023-03-27T17:07:41.880Z,6.55
2023-03-27T17:10:10.509Z,6.48
2023-03-27T17:12:38.158Z,6.38
2023-03-27T17:15:06.426Z,6.36
2023-03-27T17:17:33.774Z,6.38
2023-03-27T17:20:01.772Z,6.34
2023-03-27T17:22:30.266Z,6.37
2023-03-27T17:25:01.265Z,6.37
2023-03-27T17:27:28.748Z,6.36
2023-03-27T17:29:56.614Z,6.34
2023-03-27T17:32:27.583Z,6.33
2023-03-27T17:34:55.387Z,6.34
2023-03-27T17:37:23.039Z,6.36
2023-03-27T17:39:50.633Z,6.36
2023-03-27T17:42:18.034Z,6.33
2023-03-27T17:44:45.509Z,6.30
2023-03-27T17:47:13.391Z,6.29
2023-03-27T17:49:43.267Z,6.34
2023-03-27T17:52:12.267Z,6.30
2023-03-27T17:54:40.051Z,6.33
2023-03-27T17:57:07.482Z,6.32
2023-03-27T17:59:36.674Z,6.22
2023-03-27T18:02:04.233Z,6.16
2023-03-27T18:04:31.679Z,6.19
2023-03-27T18:06:59.021Z,6.12
2023-03-27T18:09:26.463Z,6.10
2023-03-27T18:11:54.020Z,6.19
2023-03-27T18:14:21.411Z,6.12
2023-03-27T18:16:48.836Z,6.07
2023-03-27T18:19:16.309Z,6.15
2023-03-27T18:21:43.630Z,6.13
2023-03-27T18:24:11.399Z,6.09
2023-03-27T18:26:38.649Z,5.99
2023-03-27T18:29:06.009Z,5.99
2023-03-27T18:31:33.414Z,5.94
2023-03-27T18:34:01.188Z,5.85
2023-03-27T18:36:28.622Z,5.84
2023-03-27T18:38:56.712Z,5.95
2023-03-27T18:41:24.172Z,5.94
2023-03-27T18:43:51.488Z,5.96
2023-03-27T18:46:18.846Z,5.82
2023-03-27T18:48:46.399Z,5.85
2023-03-27T18:51:14.003Z,5.82
2023-03-27T18:53:41.328Z,5.76
2023-03-27T18:56:08.731Z,5.82
2023-03-27T18:58:36.325Z,5.69
2023-03-27T19:01:10.184Z,5.74
2023-03-27T19:03:39.116Z,5.69
2023-03-27T19:06:07.509Z,5.68
2023-03-27T19:08:37.720Z,5.66
2023-03-27T19:11:06.166Z,5.62
2023-03-27T19:13:51.917Z,5.58
2023-03-27T19:16:30.823Z,5.59
2023-03-27T19:19:36.374Z,5.61
2023-03-27T19:22:26.903Z,5.52
2023-03-27T19:25:00.556Z,5.48
2023-03-27T19:27:28.594Z,5.41
2023-03-27T19:30:07.589Z,5.55
2023-03-27T19:32:34.968Z,5.48
2023-03-27T19:35:03.216Z,5.40
2023-03-27T19:37:31.429Z,5.38
2023-03-27T19:39:59.688Z,5.40
2023-03-27T19:42:28.611Z,5.43
2023-03-27T19:44:55.976Z,5.36
2023-03-27T19:47:23.310Z,5.31
2023-03-27T19:49:50.662Z,5.30
2023-03-27T19:52:19.927Z,5.33
2023-03-27T19:54:47.323Z,5.30
2023-03-27T19:57:14.842Z,5.27
2023-03-27T19:59:42.163Z,5.23
2023-03-27T20:02:11.769Z,5.26
2023-03-27T20:04:39.348Z,5.19
2023-03-27T20:07:10.168Z,5.26
2023-03-27T20:09:37.591Z,5.24
2023-03-27T20:12:05.608Z,5.23
2023-03-27T20:14:32.887Z,5.27
2023-03-27T20:17:00.369Z,5.28
2023-03-27T20:19:30.740Z,5.22
2023-03-27T20:22:00.765Z,5.23
2023-03-27T20:24:29.041Z,5.17
2023-03-27T20:26:59.573Z,5.24
2023-03-27T20:29:26.985Z,5.28
2023-03-27T20:31:54.412Z,5.30
2023-03-27T20:34:22.885Z,5.24
2023-03-27T20:36:53.360Z,5.23
2023-03-27T20:39:44.780Z,5.22
2023-03-27T20:42:15.460Z,5.24
2023-03-27T20:44:46.515Z,5.20
2023-03-27T20:47:15.209Z,5.17
2023-03-27T20:49:46.576Z,5.19
2023-03-27T20:52:15.718Z,5.20
2023-03-27T20:54:43.125Z,5.15
2023-03-27T20:57:12.003Z,5.17
2023-03-27T20:59:39.432Z,5.12
2023-03-27T21:02:06.889Z,5.09
2023-03-27T21:04:34.341Z,5.10
2023-03-27T21:07:01.711Z,5.10
2023-03-27T21:09:29.050Z,5.12
2023-03-27T21:11:56.388Z,5.06
2023-03-27T21:14:23.718Z,5.01
2023-03-27T21:16:51.315Z,5.00
2023-03-27T21:19:21.308Z,4.95
2023-03-27T21:21:49.082Z,4.92
2023-03-27T21:24:16.523Z,4.95
2023-03-27T21:26:43.783Z,4.90
2023-03-27T21:29:11.284Z,4.90
2023-03-27T21:31:39.350Z,4.93
2023-03-27T21:34:06.900Z,4.90
2023-03-27T21:36:34.519Z,4.95
2023-03-27T21:39:01.878Z,4.85
2023-03-27T21:41:29.289Z,4.82
2023-03-27T21:43:56.572Z,4.85
2023-03-27T21:46:23.924Z,4.85
2023-03-27T21:48:51.453Z,4.78
2023-03-27T21:51:18.944Z,4.78
2023-03-27T21:53:46.374Z,4.83
2023-03-27T21:56:13.644Z,4.78
2023-03-27T21:58:40.980Z,4.82
2023-03-27T22:01:08.343Z,4.71
2023-03-27T22:03:35.653Z,4.75
2023-03-27T22:06:12.243Z,4.82
2023-03-27T22:08:41.335Z,4.85
2023-03-27T22:11:08.728Z,4.79
2023-03-27T22:13:36.663Z,4.79
2023-03-27T22:16:11.956Z,4.82
2023-03-27T22:18:39.437Z,4.83
2023-03-27T22:21:16.965Z,4.80
2023-03-27T22:23:44.338Z,4.73
2023-03-27T22:26:11.885Z,4.73
2023-03-27T22:28:39.206Z,4.66
2023-03-27T22:31:07.653Z,4.65
2023-03-27T22:33:36.351Z,4.62
2023-03-27T22:36:04.668Z,4.65
2023-03-27T22:38:35.063Z,4.71
2023-03-27T22:41:04.756Z,4.71
2023-03-27T22:43:32.074Z,4.66
2023-03-27T22:46:06.308Z,4.61
2023-03-27T22:48:33.917Z,4.62
2023-03-27T22:51:01.281Z,4.66
2023-03-27T22:53:28.980Z,4.68
2023-03-27T22:55:57.207Z,4.65
2023-03-27T22:58:25.025Z,4.58
2023-03-27T23:00:52.714Z,4.58
2023-03-27T23:03:20.636Z,4.56
2023-03-27T23:05:49.257Z,4.54
2023-03-27T23:08:17.437Z,4.52
2023-03-27T23:10:44.840Z,4.45
2023-03-27T23:13:12.452Z,4.47
2023-03-27T23:15:39.732Z,4.47
2023-03-27T23:18:07.060Z,4.52
2023-03-27T23:20:34.384Z,4.49
2023-03-27T23:23:01.606Z,4.51
2023-03-27T23:25:28.911Z,4.41
2023-03-27T23:27:56.281Z,4.40
2023-03-27T23:30:23.563Z,4.40
2023-03-27T23:32:50.887Z,4.52
2023-03-27T23:35:18.248Z,4.58
2023-03-27T23:37:47.785Z,4.56
2023-03-27T23:40:15.737Z,4.58
2023-03-27T23:42:43.005Z,4.55
2023-03-27T23:45:11.892Z,4.61
2023-03-27T23:47:39.324Z,4.61
2023-03-27T23:50:06.928Z,4.52
2023-03-27T23:52:34.261Z,4.52
2023-03-27T23:55:01.523Z,4.45
2023-03-27T23:57:28.822Z,4.52
2023-03-27T23:59:56.477Z,4.51
